KEGI/EGI METAR and TAF weather

Enter ICAO airport designator
Station Type Date Time Source
KEGI METAR 2023/02/04 01:55 UTC NOAA

KEGI 040155Z AUTO 35012KT 10SM CLR 10/M02 A3039 RMK AO2 SLPNO T00951025 $


Station Type Date Time Source
KEGI Decoded METAR 2023/02/04 01:55 UTC NOAA

Duke Field / Eglin Auxiliary, FL, United States (KEGI) 30-39N 086-31W
Feb 03, 2023 - 08:55 PM EST / 2023.02.04 0155 UTC
Wind: from the N (350 degrees) at 14 MPH (12 KT):0
Visibility: 10 mile(s):0
Sky conditions: clear
Temperature: 49.1 F (9.5 C)
Dew Point: 27.5 F (-2.5 C)
Relative Humidity: 42%
Pressure (altimeter): 30.39 in. Hg (1029 hPa)
ob: KEGI 040155Z AUTO 35012KT 10SM CLR 10/M02 A3039 RMK AO2 SLPNO T00951025
cycle: 2

Station Type Date Time Source
KEGI TAF 2023/02/04 02:00 UTC NOAA

TAF KEGI 040200Z 0402/0508 03009KT 9999 SKC QNH3037INS WND 07012KT AFT 0412
BECMG 0501/0502 09009KT 9999 BKN030 QNH3032INS TX18/0421Z TN01/0412Z

Example: see airport list